sensor_id;sensor_type;location;lat;lon;timestamp;pressure;altitude;pressure_sealevel;temperature;humidity
40490;BME280;26196;52.302;10.572;2024-03-22T00:00:58;101158.44;;;14.76;48.00
40490;BME280;26196;52.302;10.572;2024-03-22T00:04:58;101147.28;;;14.68;47.55
40490;BME280;26196;52.302;10.572;2024-03-22T00:08:59;101101.50;;;14.44;48.17
40490;BME280;26196;52.302;10.572;2024-03-22T00:12:59;101130.88;;;14.60;48.12
40490;BME280;26196;52.302;10.572;2024-03-22T00:17:00;101086.13;;;14.32;47.76
40490;BME280;26196;52.302;10.572;2024-03-22T00:21:00;101093.78;;;14.39;47.80
40490;BME280;26196;52.302;10.572;2024-03-22T00:25:02;101070.25;;;14.33;47.64
40490;BME280;26196;52.302;10.572;2024-03-22T00:29:03;101073.88;;;14.31;47.83
40490;BME280;26196;52.302;10.572;2024-03-22T00:33:03;101075.66;;;14.30;48.07
40490;BME280;26196;52.302;10.572;2024-03-22T00:37:04;101072.13;;;14.31;48.19
40490;BME280;26196;52.302;10.572;2024-03-22T00:41:05;101056.63;;;14.22;48.12
40490;BME280;26196;52.302;10.572;2024-03-22T00:45:07;101085.91;;;14.38;48.08
40490;BME280;26196;52.302;10.572;2024-03-22T00:49:07;101120.28;;;14.61;48.20
40490;BME280;26196;52.302;10.572;2024-03-22T00:53:08;101059.09;;;14.27;48.24
40490;BME280;26196;52.302;10.572;2024-03-22T00:57:10;101106.50;;;14.53;47.89
40490;BME280;26196;52.302;10.572;2024-03-22T01:01:10;101047.00;;;14.21;48.23
40490;BME280;26196;52.302;10.572;2024-03-22T01:05:11;101096.81;;;14.54;48.42
40490;BME280;26196;52.302;10.572;2024-03-22T01:09:12;101040.44;;;14.33;48.32
40490;BME280;26196;52.302;10.572;2024-03-22T01:13:12;101077.28;;;14.61;48.04
40490;BME280;26196;52.302;10.572;2024-03-22T01:17:13;101073.94;;;14.56;48.24
40490;BME280;26196;52.302;10.572;2024-03-22T01:21:14;101073.00;;;14.57;48.23
40490;BME280;26196;52.302;10.572;2024-03-22T01:25:14;101065.06;;;14.58;48.35
40490;BME280;26196;52.302;10.572;2024-03-22T01:29:15;101042.59;;;14.47;48.26
40490;BME280;26196;52.302;10.572;2024-03-22T01:33:15;101055.63;;;14.51;48.12
40490;BME280;26196;52.302;10.572;2024-03-22T01:37:16;101052.81;;;14.57;48.65
40490;BME280;26196;52.302;10.572;2024-03-22T01:41:16;101054.53;;;14.58;48.84
40490;BME280;26196;52.302;10.572;2024-03-22T01:45:18;100998.53;;;14.27;48.53
40490;BME280;26196;52.302;10.572;2024-03-22T01:49:19;101032.03;;;14.48;48.96
40490;BME280;26196;52.302;10.572;2024-03-22T01:53:19;101036.47;;;14.46;49.06
40490;BME280;26196;52.302;10.572;2024-03-22T01:57:23;101060.88;;;14.51;49.07
40490;BME280;26196;52.302;10.572;2024-03-22T02:01:23;101043.28;;;14.53;48.70
40490;BME280;26196;52.302;10.572;2024-03-22T02:05:24;101007.44;;;14.22;49.17
40490;BME280;26196;52.302;10.572;2024-03-22T02:09:25;101028.41;;;14.51;48.93
40490;BME280;26196;52.302;10.572;2024-03-22T02:13:26;101025.09;;;14.45;49.18
40490;BME280;26196;52.302;10.572;2024-03-22T02:17:26;100972.41;;;14.20;49.08
40490;BME280;26196;52.302;10.572;2024-03-22T02:21:27;101003.28;;;14.42;49.34
40490;BME280;26196;52.302;10.572;2024-03-22T02:25:27;100994.41;;;14.44;49.24
40490;BME280;26196;52.302;10.572;2024-03-22T02:29:28;101009.16;;;14.49;48.95
40490;BME280;26196;52.302;10.572;2024-03-22T02:33:29;101008.31;;;14.48;48.94
40490;BME280;26196;52.302;10.572;2024-03-22T02:37:30;100947.84;;;14.20;49.40
40490;BME280;26196;52.302;10.572;2024-03-22T02:41:32;100946.06;;;14.20;48.93
40490;BME280;26196;52.302;10.572;2024-03-22T02:45:32;100975.75;;;14.51;49.11
40490;BME280;26196;52.302;10.572;2024-03-22T02:49:33;100966.16;;;14.48;49.57
40490;BME280;26196;52.302;10.572;2024-03-22T02:53:33;100942.84;;;14.37;49.52
40490;BME280;26196;52.302;10.572;2024-03-22T02:57:34;100899.66;;;14.18;48.88
40490;BME280;26196;52.302;10.572;2024-03-22T03:01:35;100883.94;;;14.16;49.43
40490;BME280;26196;52.302;10.572;2024-03-22T03:05:35;100871.84;;;14.11;49.25
40490;BME280;26196;52.302;10.572;2024-03-22T03:09:36;100871.91;;;14.09;49.58
40490;BME280;26196;52.302;10.572;2024-03-22T03:13:36;100919.88;;;14.41;49.25
40490;BME280;26196;52.302;10.572;2024-03-22T03:17:37;100915.38;;;14.44;49.45
40490;BME280;26196;52.302;10.572;2024-03-22T03:21:37;100906.88;;;14.36;49.53
40490;BME280;26196;52.302;10.572;2024-03-22T03:25:38;100904.16;;;14.39;49.60
40490;BME280;26196;52.302;10.572;2024-03-22T03:29:38;100855.97;;;14.12;49.52
40490;BME280;26196;52.302;10.572;2024-03-22T03:33:39;100876.38;;;14.31;49.66
40490;BME280;26196;52.302;10.572;2024-03-22T03:37:40;100826.19;;;14.12;49.33
40490;BME280;26196;52.302;10.572;2024-03-22T03:41:41;100844.97;;;14.26;49.50
40490;BME280;26196;52.302;10.572;2024-03-22T03:45:41;100789.69;;;14.03;49.23
40490;BME280;26196;52.302;10.572;2024-03-22T03:49:44;100860.94;;;14.45;49.62
40490;BME280;26196;52.302;10.572;2024-03-22T03:53:45;100851.53;;;14.38;49.30
40490;BME280;26196;52.302;10.572;2024-03-22T03:57:45;100797.47;;;14.06;49.89
40490;BME280;26196;52.302;10.572;2024-03-22T04:01:46;100730.50;;;13.66;49.50
40490;BME280;26196;52.302;10.572;2024-03-22T04:05:46;100794.72;;;14.09;49.87
40490;BME280;26196;52.302;10.572;2024-03-22T04:09:47;100844.19;;;14.46;49.90
40490;BME280;26196;52.302;10.572;2024-03-22T04:13:47;100768.44;;;14.07;49.80
40490;BME280;26196;52.302;10.572;2024-03-22T04:17:48;100840.72;;;14.45;49.84
40490;BME280;26196;52.302;10.572;2024-03-22T04:21:49;100835.69;;;14.39;49.46
40490;BME280;26196;52.302;10.572;2024-03-22T04:25:59;100792.66;;;14.17;49.50
40490;BME280;26196;52.302;10.572;2024-03-22T04:30:00;100842.41;;;14.47;49.51
40490;BME280;26196;52.302;10.572;2024-03-22T04:34:01;100818.84;;;14.43;49.64
40490;BME280;26196;52.302;10.572;2024-03-22T04:38:02;100794.69;;;14.32;49.68
40490;BME280;26196;52.302;10.572;2024-03-22T04:42:03;100805.97;;;14.36;49.94
40490;BME280;26196;52.302;10.572;2024-03-22T04:46:04;100818.78;;;14.45;50.06
40490;BME280;26196;52.302;10.572;2024-03-22T04:50:05;100761.06;;;14.17;49.65
40490;BME280;26196;52.302;10.572;2024-03-22T04:54:06;100735.94;;;14.08;49.58
40490;BME280;26196;52.302;10.572;2024-03-22T04:58:06;100721.81;;;14.11;49.83
40490;BME280;26196;52.302;10.572;2024-03-22T05:02:07;100766.25;;;14.42;49.65
40490;BME280;26196;52.302;10.572;2024-03-22T05:06:07;100737.19;;;14.21;49.73
40490;BME280;26196;52.302;10.572;2024-03-22T05:10:08;100714.69;;;14.13;49.50
40490;BME280;26196;52.302;10.572;2024-03-22T05:14:09;100749.81;;;14.35;49.63
40490;BME280;26196;52.302;10.572;2024-03-22T05:18:10;100770.41;;;14.48;49.73
40490;BME280;26196;52.302;10.572;2024-03-22T05:22:10;100759.06;;;14.45;49.97
40490;BME280;26196;52.302;10.572;2024-03-22T05:26:11;100750.31;;;14.45;49.63
40490;BME280;26196;52.302;10.572;2024-03-22T05:30:12;100687.47;;;14.14;49.50
40490;BME280;26196;52.302;10.572;2024-03-22T05:34:14;100634.19;;;13.85;49.61
40490;BME280;26196;52.302;10.572;2024-03-22T05:38:17;100755.34;;;14.51;50.00
40490;BME280;26196;52.302;10.572;2024-03-22T05:42:18;100738.81;;;14.48;49.69
40490;BME280;26196;52.302;10.572;2024-03-22T05:46:18;100689.97;;;14.17;49.66
40490;BME280;26196;52.302;10.572;2024-03-22T05:50:19;100731.03;;;14.44;49.54
40490;BME280;26196;52.302;10.572;2024-03-22T05:54:21;100751.91;;;14.49;49.87
40490;BME280;26196;52.302;10.572;2024-03-22T05:58:21;100737.06;;;14.47;50.02
40490;BME280;26196;52.302;10.572;2024-03-22T06:02:22;100745.78;;;14.49;50.07
40490;BME280;26196;52.302;10.572;2024-03-22T06:06:23;100691.63;;;14.19;49.74
40490;BME280;26196;52.302;10.572;2024-03-22T06:10:26;100675.22;;;14.13;50.30
40490;BME280;26196;52.302;10.572;2024-03-22T06:14:26;100730.06;;;14.47;50.28
40490;BME280;26196;52.302;10.572;2024-03-22T06:18:27;100736.03;;;14.51;49.87
40490;BME280;26196;52.302;10.572;2024-03-22T06:22:28;100712.59;;;14.44;50.43
40490;BME280;26196;52.302;10.572;2024-03-22T06:26:28;100722.03;;;14.50;50.10
40490;BME280;26196;52.302;10.572;2024-03-22T06:30:29;100664.59;;;14.16;50.46
40490;BME280;26196;52.302;10.572;2024-03-22T06:34:29;100705.28;;;14.51;50.49
40490;BME280;26196;52.302;10.572;2024-03-22T06:38:30;100652.94;;;14.21;50.33
40490;BME280;26196;52.302;10.572;2024-03-22T06:42:30;100674.13;;;14.40;50.18
40490;BME280;26196;52.302;10.572;2024-03-22T06:46:31;100698.22;;;14.52;50.18
40490;BME280;26196;52.302;10.572;2024-03-22T06:50:32;100638.03;;;14.20;50.67
40490;BME280;26196;52.302;10.572;2024-03-22T06:54:32;100684.34;;;14.48;50.37
40490;BME280;26196;52.302;10.572;2024-03-22T06:58:33;100629.84;;;14.28;50.08
40490;BME280;26196;52.302;10.572;2024-03-22T07:02:34;100677.88;;;14.57;50.46
40490;BME280;26196;52.302;10.572;2024-03-22T07:06:34;100677.09;;;14.55;50.58
40490;BME280;26196;52.302;10.572;2024-03-22T07:10:38;100631.56;;;14.29;50.80
40490;BME280;26196;52.302;10.572;2024-03-22T07:14:39;100611.00;;;14.17;50.55
40490;BME280;26196;52.302;10.572;2024-03-22T07:18:40;100621.22;;;14.25;50.49
40490;BME280;26196;52.302;10.572;2024-03-22T07:22:40;100618.78;;;14.20;50.54
40490;BME280;26196;52.302;10.572;2024-03-22T07:26:41;100670.94;;;14.54;50.58
40490;BME280;26196;52.302;10.572;2024-03-22T07:30:42;100668.09;;;14.60;50.50
40490;BME280;26196;52.302;10.572;2024-03-22T07:34:46;100601.00;;;14.25;50.82
40490;BME280;26196;52.302;10.572;2024-03-22T07:38:46;100601.63;;;14.32;50.82
40490;BME280;26196;52.302;10.572;2024-03-22T07:42:49;100647.00;;;14.60;50.97
40490;BME280;26196;52.302;10.572;2024-03-22T07:46:50;100644.28;;;14.62;50.52
40490;BME280;26196;52.302;10.572;2024-03-22T07:50:58;100637.19;;;14.64;50.63
40490;BME280;26196;52.302;10.572;2024-03-22T07:54:59;100612.94;;;14.56;50.85
40490;BME280;26196;52.302;10.572;2024-03-22T07:58:59;100616.91;;;14.66;50.62
40490;BME280;26196;52.302;10.572;2024-03-22T08:03:00;100607.34;;;14.63;50.41
40490;BME280;26196;52.302;10.572;2024-03-22T08:07:00;100616.81;;;14.68;51.27
40490;BME280;26196;52.302;10.572;2024-03-22T08:11:01;100617.09;;;14.61;51.39
40490;BME280;26196;52.302;10.572;2024-03-22T08:15:02;100620.59;;;14.62;51.07
40490;BME280;26196;52.302;10.572;2024-03-22T08:19:03;100611.78;;;14.63;50.96
40490;BME280;26196;52.302;10.572;2024-03-22T08:23:03;100610.03;;;14.62;51.38
40490;BME280;26196;52.302;10.572;2024-03-22T08:27:04;100630.59;;;14.74;51.18
40490;BME280;26196;52.302;10.572;2024-03-22T08:31:05;100619.28;;;14.72;51.18
40490;BME280;26196;52.302;10.572;2024-03-22T08:35:06;100597.66;;;14.64;51.59
40490;BME280;26196;52.302;10.572;2024-03-22T08:39:06;100546.25;;;14.33;51.50
40490;BME280;26196;52.302;10.572;2024-03-22T08:43:10;100617.44;;;14.74;51.37
40490;BME280;26196;52.302;10.572;2024-03-22T08:47:11;100545.28;;;14.36;51.26
40490;BME280;26196;52.302;10.572;2024-03-22T08:51:12;100532.19;;;14.34;51.31
40490;BME280;26196;52.302;10.572;2024-03-22T08:55:12;100544.28;;;14.38;51.25
40490;BME280;26196;52.302;10.572;2024-03-22T08:59:13;100601.31;;;14.82;51.53
40490;BME280;26196;52.302;10.572;2024-03-22T09:03:14;100605.84;;;14.78;51.48
40490;BME280;26196;52.302;10.572;2024-03-22T09:07:15;100542.06;;;14.50;51.24
40490;BME280;26196;52.302;10.572;2024-03-22T09:11:15;100588.19;;;14.80;51.66
40490;BME280;26196;52.302;10.572;2024-03-22T09:15:16;100535.06;;;14.49;51.82
40490;BME280;26196;52.302;10.572;2024-03-22T09:19:16;100573.16;;;14.82;51.84
40490;BME280;26196;52.302;10.572;2024-03-22T09:23:17;100584.50;;;14.84;51.59
40490;BME280;26196;52.302;10.572;2024-03-22T09:27:18;100564.41;;;14.82;51.80
40490;BME280;26196;52.302;10.572;2024-03-22T09:31:18;100515.50;;;14.56;51.63
40490;BME280;26196;52.302;10.572;2024-03-22T09:35:20;100493.78;;;14.49;51.62
40490;BME280;26196;52.302;10.572;2024-03-22T09:39:21;100545.50;;;14.72;51.69
40490;BME280;26196;52.302;10.572;2024-03-22T09:43:22;100540.97;;;14.76;51.66
40490;BME280;26196;52.302;10.572;2024-03-22T09:47:24;100510.09;;;14.59;51.80
40490;BME280;26196;52.302;10.572;2024-03-22T09:51:27;100486.69;;;14.51;51.59
40490;BME280;26196;52.302;10.572;2024-03-22T09:55:27;100551.81;;;14.88;52.20
40490;BME280;26196;52.302;10.572;2024-03-22T09:59:29;100499.25;;;14.65;51.56
40490;BME280;26196;52.302;10.572;2024-03-22T10:03:29;100526.38;;;14.87;51.95
40490;BME280;26196;52.302;10.572;2024-03-22T10:07:30;100473.22;;;14.59;51.78
40490;BME280;26196;52.302;10.572;2024-03-22T10:11:31;100527.81;;;14.95;51.75
40490;BME280;26196;52.302;10.572;2024-03-22T10:15:32;100521.56;;;14.97;51.85
40490;BME280;26196;52.302;10.572;2024-03-22T10:19:32;100491.47;;;14.82;51.99
40490;BME280;26196;52.302;10.572;2024-03-22T10:23:33;100475.81;;;14.79;51.89
40490;BME280;26196;52.302;10.572;2024-03-22T10:27:34;100506.88;;;14.92;52.11
40490;BME280;26196;52.302;10.572;2024-03-22T10:31:35;100485.00;;;14.90;52.01
40490;BME280;26196;52.302;10.572;2024-03-22T10:35:36;100435.00;;;14.69;52.03
40490;BME280;26196;52.302;10.572;2024-03-22T10:39:37;100434.84;;;14.72;52.17
40490;BME280;26196;52.302;10.572;2024-03-22T10:43:39;100461.69;;;14.80;52.26
40490;BME280;26196;52.302;10.572;2024-03-22T10:47:40;100458.94;;;14.83;52.18
40490;BME280;26196;52.302;10.572;2024-03-22T10:51:41;100424.50;;;14.68;52.46
40490;BME280;26196;52.302;10.572;2024-03-22T10:55:45;100477.53;;;14.99;52.48
40490;BME280;26196;52.302;10.572;2024-03-22T10:59:46;100401.44;;;14.54;52.38
40490;BME280;26196;52.302;10.572;2024-03-22T11:03:47;100443.63;;;14.92;52.30
40490;BME280;26196;52.302;10.572;2024-03-22T11:07:58;100465.22;;;15.00;52.48
40490;BME280;26196;52.302;10.572;2024-03-22T11:11:59;100452.69;;;15.05;52.70
40490;BME280;26196;52.302;10.572;2024-03-22T11:16:00;100435.50;;;14.96;52.83
40490;BME280;26196;52.302;10.572;2024-03-22T11:20:01;100401.19;;;14.79;52.89
40490;BME280;26196;52.302;10.572;2024-03-22T11:24:02;100443.69;;;15.09;52.89
40490;BME280;26196;52.302;10.572;2024-03-22T11:28:02;100437.50;;;15.10;52.59
40490;BME280;26196;52.302;10.572;2024-03-22T11:32:03;100398.53;;;14.79;52.87
40490;BME280;26196;52.302;10.572;2024-03-22T11:36:04;100428.88;;;15.06;52.97
40490;BME280;26196;52.302;10.572;2024-03-22T11:40:05;100445.97;;;15.17;53.43
40490;BME280;26196;52.302;10.572;2024-03-22T11:44:06;100441.47;;;15.19;53.34
40490;BME280;26196;52.302;10.572;2024-03-22T11:48:07;100404.28;;;15.06;54.41
40490;BME280;26196;52.302;10.572;2024-03-22T11:52:08;100441.91;;;15.28;53.92
40490;BME280;26196;52.302;10.572;2024-03-22T11:56:09;100405.41;;;15.19;53.48
40490;BME280;26196;52.302;10.572;2024-03-22T12:00:10;100418.88;;;15.32;53.31
40490;BME280;26196;52.302;10.572;2024-03-22T12:04:13;100367.22;;;15.09;53.84
40490;BME280;26196;52.302;10.572;2024-03-22T12:08:20;100415.06;;;15.38;52.05
40490;BME280;26196;52.302;10.572;2024-03-22T12:12:27;100397.69;;;15.34;55.52
40490;BME280;26196;52.302;10.572;2024-03-22T12:16:28;100400.25;;;15.35;56.45
40490;BME280;26196;52.302;10.572;2024-03-22T12:20:29;100337.75;;;15.01;56.91
40490;BME280;26196;52.302;10.572;2024-03-22T12:24:30;100327.94;;;15.04;55.32
40490;BME280;26196;52.302;10.572;2024-03-22T12:28:30;100338.88;;;15.14;55.38
40490;BME280;26196;52.302;10.572;2024-03-22T12:32:31;100378.03;;;15.41;55.92
40490;BME280;26196;52.302;10.572;2024-03-22T12:36:32;100354.94;;;15.27;55.16
40490;BME280;26196;52.302;10.572;2024-03-22T12:40:33;100362.63;;;15.31;55.79
40490;BME280;26196;52.302;10.572;2024-03-22T12:44:34;100308.69;;;15.02;55.62
40490;BME280;26196;52.302;10.572;2024-03-22T12:48:34;100351.16;;;15.32;55.67
40490;BME280;26196;52.302;10.572;2024-03-22T12:52:35;100360.47;;;15.40;55.88
40490;BME280;26196;52.302;10.572;2024-03-22T12:56:35;100335.00;;;15.21;55.56
40490;BME280;26196;52.302;10.572;2024-03-22T13:00:39;100299.00;;;15.03;55.44
40490;BME280;26196;52.302;10.572;2024-03-22T13:04:40;100358.63;;;15.42;55.23
40490;BME280;26196;52.302;10.572;2024-03-22T13:08:40;100350.22;;;15.34;55.68
40490;BME280;26196;52.302;10.572;2024-03-22T13:12:41;100345.97;;;15.48;55.28
40490;BME280;26196;52.302;10.572;2024-03-22T13:16:42;100343.47;;;15.45;54.53
40490;BME280;26196;52.302;10.572;2024-03-22T13:20:46;100345.56;;;15.56;55.99
40490;BME280;26196;52.302;10.572;2024-03-22T13:24:48;100270.16;;;15.00;56.48
40490;BME280;26196;52.302;10.572;2024-03-22T13:28:51;100284.06;;;15.21;55.70
40490;BME280;26196;52.302;10.572;2024-03-22T13:32:52;100346.97;;;15.63;57.22
40490;BME280;26196;52.302;10.572;2024-03-22T13:36:53;100350.56;;;15.62;57.97
40490;BME280;26196;52.302;10.572;2024-03-22T13:40:57;100346.06;;;15.64;56.38
40490;BME280;26196;52.302;10.572;2024-03-22T13:44:59;100285.53;;;15.26;57.18
40490;BME280;26196;52.302;10.572;2024-03-22T13:48:59;100355.00;;;15.62;56.58
40490;BME280;26196;52.302;10.572;2024-03-22T13:53:00;100349.00;;;15.58;56.39
40490;BME280;26196;52.302;10.572;2024-03-22T13:57:01;100279.81;;;15.18;56.45
40490;BME280;26196;52.302;10.572;2024-03-22T14:01:01;100272.81;;;15.17;56.96
40490;BME280;26196;52.302;10.572;2024-03-22T14:05:03;100323.34;;;15.62;56.35
40490;BME280;26196;52.302;10.572;2024-03-22T14:09:04;100325.34;;;15.57;56.38
40490;BME280;26196;52.302;10.572;2024-03-22T14:13:05;100312.22;;;15.55;56.33
40490;BME280;26196;52.302;10.572;2024-03-22T14:17:08;100300.09;;;15.51;56.21
40490;BME280;26196;52.302;10.572;2024-03-22T14:21:09;100285.78;;;15.39;56.87
40490;BME280;26196;52.302;10.572;2024-03-22T14:25:09;100326.81;;;15.62;56.58
40490;BME280;26196;52.302;10.572;2024-03-22T14:29:14;100254.06;;;15.23;56.83
40490;BME280;26196;52.302;10.572;2024-03-22T14:33:14;100308.50;;;15.59;56.71
40490;BME280;26196;52.302;10.572;2024-03-22T14:37:15;100315.31;;;15.63;56.59
40490;BME280;26196;52.302;10.572;2024-03-22T14:41:15;100311.91;;;15.61;57.23
40490;BME280;26196;52.302;10.572;2024-03-22T14:45:16;100301.66;;;15.55;57.25
40490;BME280;26196;52.302;10.572;2024-03-22T14:49:21;100282.59;;;15.50;57.66
40490;BME280;26196;52.302;10.572;2024-03-22T14:53:22;100280.97;;;15.47;57.16
40490;BME280;26196;52.302;10.572;2024-03-22T14:57:23;100290.19;;;15.56;57.31
40490;BME280;26196;52.302;10.572;2024-03-22T15:01:25;100296.06;;;15.61;57.77
40490;BME280;26196;52.302;10.572;2024-03-22T15:05:27;100287.41;;;15.59;57.85
40490;BME280;26196;52.302;10.572;2024-03-22T15:09:27;100292.81;;;15.56;57.62
40490;BME280;26196;52.302;10.572;2024-03-22T15:13:28;100292.19;;;15.51;57.56
40490;BME280;26196;52.302;10.572;2024-03-22T15:17:30;100095.97;;;14.35;57.35
40490;BME280;26196;52.302;10.572;2024-03-22T15:21:31;100295.94;;;15.64;57.19
40490;BME280;26196;52.302;10.572;2024-03-22T15:25:32;100283.81;;;15.60;56.99
40490;BME280;26196;52.302;10.572;2024-03-22T15:29:33;100298.66;;;15.63;57.16
40490;BME280;26196;52.302;10.572;2024-03-22T15:33:33;100257.63;;;15.40;57.12
40490;BME280;26196;52.302;10.572;2024-03-22T15:37:34;100299.81;;;15.57;57.59
40490;BME280;26196;52.302;10.572;2024-03-22T15:41:35;100225.97;;;15.22;57.05
40490;BME280;26196;52.302;10.572;2024-03-22T15:45:36;100266.06;;;15.46;57.08
40490;BME280;26196;52.302;10.572;2024-03-22T15:49:38;100284.00;;;15.57;56.99
40490;BME280;26196;52.302;10.572;2024-03-22T15:53:39;100284.16;;;15.54;57.07
40490;BME280;26196;52.302;10.572;2024-03-22T15:57:39;100281.56;;;15.52;57.34
40490;BME280;26196;52.302;10.572;2024-03-22T16:01:40;100217.16;;;15.23;56.86
40490;BME280;26196;52.302;10.572;2024-03-22T16:05:50;100276.25;;;15.54;57.46
40490;BME280;26196;52.302;10.572;2024-03-22T16:09:51;100258.69;;;15.53;57.58
40490;BME280;26196;52.302;10.572;2024-03-22T16:13:52;100206.88;;;15.17;57.16
40490;BME280;26196;52.302;10.572;2024-03-22T16:17:53;100264.06;;;15.51;57.33
40490;BME280;26196;52.302;10.572;2024-03-22T16:21:55;100204.03;;;15.22;57.46
40490;BME280;26196;52.302;10.572;2024-03-22T16:25:55;100204.03;;;15.22;57.42
40490;BME280;26196;52.302;10.572;2024-03-22T16:29:56;100219.06;;;15.37;57.54
40490;BME280;26196;52.302;10.572;2024-03-22T16:33:57;100192.31;;;15.27;56.34
40490;BME280;26196;52.302;10.572;2024-03-22T16:37:57;100248.44;;;15.64;55.35
40490;BME280;26196;52.302;10.572;2024-03-22T16:41:58;100239.59;;;15.65;56.80
40490;BME280;26196;52.302;10.572;2024-03-22T16:45:59;100215.03;;;15.47;57.77
40490;BME280;26196;52.302;10.572;2024-03-22T16:49:59;100185.72;;;15.36;57.31
40490;BME280;26196;52.302;10.572;2024-03-22T16:54:00;100212.66;;;15.59;57.06
40490;BME280;26196;52.302;10.572;2024-03-22T16:58:01;100161.00;;;15.21;57.68
40490;BME280;26196;52.302;10.572;2024-03-22T17:02:03;100153.47;;;15.14;57.35
40490;BME280;26196;52.302;10.572;2024-03-22T17:06:04;100168.75;;;15.24;57.39
40490;BME280;26196;52.302;10.572;2024-03-22T17:10:05;100191.63;;;15.41;57.32
40490;BME280;26196;52.302;10.572;2024-03-22T17:14:06;100142.09;;;15.13;57.38
40490;BME280;26196;52.302;10.572;2024-03-22T17:18:07;100221.44;;;15.59;57.33
40490;BME280;26196;52.302;10.572;2024-03-22T17:22:07;100126.00;;;15.02;57.15
40490;BME280;26196;52.302;10.572;2024-03-22T17:26:08;100228.88;;;15.68;57.36
40490;BME280;26196;52.302;10.572;2024-03-22T17:30:09;100164.69;;;15.35;57.10
40490;BME280;26196;52.302;10.572;2024-03-22T17:34:10;100222.19;;;15.61;57.31
40490;BME280;26196;52.302;10.572;2024-03-22T17:38:10;100199.25;;;15.46;57.39
40490;BME280;26196;52.302;10.572;2024-03-22T17:42:11;100212.66;;;15.59;57.38
40490;BME280;26196;52.302;10.572;2024-03-22T17:46:11;100211.81;;;15.58;57.37
40490;BME280;26196;52.302;10.572;2024-03-22T17:50:12;100194.53;;;15.52;57.14
40490;BME280;26196;52.302;10.572;2024-03-22T17:54:13;100209.94;;;15.60;57.49
40490;BME280;26196;52.302;10.572;2024-03-22T17:58:13;100157.28;;;15.25;57.41
40490;BME280;26196;52.302;10.572;2024-03-22T18:02:14;100215.31;;;15.59;57.12
40490;BME280;26196;52.302;10.572;2024-03-22T18:06:15;100201.75;;;15.49;57.13
40490;BME280;26196;52.302;10.572;2024-03-22T18:10:15;100226.56;;;15.62;57.32
40490;BME280;26196;52.302;10.572;2024-03-22T18:14:16;100155.88;;;15.18;57.29
40490;BME280;26196;52.302;10.572;2024-03-22T18:18:19;100123.66;;;14.96;57.17
40490;BME280;26196;52.302;10.572;2024-03-22T18:22:19;100205.00;;;15.54;57.05
40490;BME280;26196;52.302;10.572;2024-03-22T18:26:20;100208.88;;;15.64;56.92
40490;BME280;26196;52.302;10.572;2024-03-22T18:30:20;100171.28;;;15.43;57.45
40490;BME280;26196;52.302;10.572;2024-03-22T18:34:21;100211.13;;;15.72;56.98
40490;BME280;26196;52.302;10.572;2024-03-22T18:38:22;100158.50;;;15.36;56.86
40490;BME280;26196;52.302;10.572;2024-03-22T18:42:22;100192.25;;;15.62;57.31
40490;BME280;26196;52.302;10.572;2024-03-22T18:46:23;100134.28;;;15.27;57.09
40490;BME280;26196;52.302;10.572;2024-03-22T18:50:24;100202.03;;;15.60;56.76
40490;BME280;26196;52.302;10.572;2024-03-22T18:54:26;100191.03;;;15.52;56.92
40490;BME280;26196;52.302;10.572;2024-03-22T18:58:27;100184.31;;;15.46;57.05
40490;BME280;26196;52.302;10.572;2024-03-22T19:02:28;100193.59;;;15.53;56.77
40490;BME280;26196;52.302;10.572;2024-03-22T19:06:28;100195.97;;;15.58;56.78
40490;BME280;26196;52.302;10.572;2024-03-22T19:10:30;100161.59;;;15.44;56.53
40490;BME280;26196;52.302;10.572;2024-03-22T19:14:30;100134.16;;;15.30;56.78
40490;BME280;26196;52.302;10.572;2024-03-22T19:18:31;100172.47;;;15.53;56.81
40490;BME280;26196;52.302;10.572;2024-03-22T19:22:32;100181.72;;;15.62;56.81
40490;BME280;26196;52.302;10.572;2024-03-22T19:26:33;100185.19;;;15.63;56.60
40490;BME280;26196;52.302;10.572;2024-03-22T19:30:37;100122.06;;;15.26;56.54
40490;BME280;26196;52.302;10.572;2024-03-22T19:34:38;100180.25;;;15.57;56.65
40490;BME280;26196;52.302;10.572;2024-03-22T19:38:39;100182.63;;;15.61;56.58
40490;BME280;26196;52.302;10.572;2024-03-22T19:42:40;100121.53;;;15.20;56.01
40490;BME280;26196;52.302;10.572;2024-03-22T19:46:40;100149.03;;;15.31;55.60
40490;BME280;26196;52.302;10.572;2024-03-22T19:50:41;100138.97;;;15.22;56.01
40490;BME280;26196;52.302;10.572;2024-03-22T19:54:42;100177.25;;;15.47;55.37
40490;BME280;26196;52.302;10.572;2024-03-22T19:58:42;100149.44;;;15.24;55.55
40490;BME280;26196;52.302;10.572;2024-03-22T20:02:43;100165.03;;;15.28;55.81
40490;BME280;26196;52.302;10.572;2024-03-22T20:06:44;100205.25;;;15.49;56.23
40490;BME280;26196;52.302;10.572;2024-03-22T20:10:45;100185.63;;;15.38;55.95
40490;BME280;26196;52.302;10.572;2024-03-22T20:14:46;100175.56;;;15.28;55.64
40490;BME280;26196;52.302;10.572;2024-03-22T20:18:46;100150.44;;;15.21;55.78
40490;BME280;26196;52.302;10.572;2024-03-22T20:22:47;100177.41;;;15.44;55.45
40490;BME280;26196;52.302;10.572;2024-03-22T20:26:47;100143.72;;;15.16;55.67
40490;BME280;26196;52.302;10.572;2024-03-22T20:30:48;100179.44;;;15.39;55.73
40490;BME280;26196;52.302;10.572;2024-03-22T20:34:49;100193.25;;;15.44;55.44
